Terminal Aerodrome Forecast
Issued by NWS Upton, NY

Home | Current Version | Previous Version | Text Only | Print | Product List | Glossary On
Versions: 1 2 3 4 5 6 7 8 9 10 11 12 13 14 15 16 17 18 19 20 21 22 23 24 25 26 27 28 29 30 31
000
FTUS41 KOKX 270330 AAD
TAFLGA
TAF AMD
KLGA 270330Z 2704/2724 19014G20KT P6SM SCT025 OVC045
      TEMPO 2704/2707 BKN025 OVC045
     FM270700 22013G20KT P6SM VCSH BKN020 OVC040
     FM270900 23011G18KT 3SM -SHRA BR BKN010 OVC025
     FM271100 26009KT P6SM -SHRA BKN010 OVC020
     FM271600 28008KT P6SM FEW030 SCT070
     FM272000 21007KT P6SM SCT070=

USA.gov is the U.S. government's official web portal to all federal, state and local government web resources and services.